Time;durP1;ratioP1;P1;durP2;ratioP2;P2;SDS_P1;SDS_P2;PMS_P1;PMS_P2;Temp;Humidity;BMP_temperature;BMP_pressure;BME280_temperature;BME280_humidity;BME280_pressure;Samples;Min_cycle;Max_cycle;Signal;HPM_P1;HPM_P2
2022/12/26 00:00:26;;;;;;;48.40;22.73;;;9.50;99.90;;;;;;5061600;28;20032;-72
2022/12/26 00:02:52;;;;;;;50.00;22.85;;;9.50;99.90;;;;;;5049213;28;20044;-73
2022/12/26 00:05:18;;;;;;;50.25;23.05;;;9.50;99.90;;;;;;5049021;28;20541;-73
2022/12/26 00:07:43;;;;;;;48.92;23.95;;;9.50;99.90;;;;;;5042030;28;20022;-73
2022/12/26 00:10:12;;;;;;;52.78;23.80;;;9.60;99.90;;;;;;5045589;28;20440;-74
2022/12/26 00:12:38;;;;;;;58.47;25.92;;;9.50;99.90;;;;;;5048880;28;20016;-73
2022/12/26 00:15:04;;;;;;;59.47;27.27;;;9.60;99.90;;;;;;5031567;28;20035;-73
2022/12/26 00:17:29;;;;;;;57.30;26.52;;;9.50;99.90;;;;;;5053174;28;20027;-73
2022/12/26 00:19:55;;;;;;;59.22;28.50;;;9.60;99.90;;;;;;5042490;28;20025;-73
2022/12/26 00:22:21;;;;;;;59.03;28.58;;;9.50;99.90;;;;;;5046805;28;20021;-73
2022/12/26 00:24:46;;;;;;;59.35;28.73;;;9.50;99.90;;;;;;5046519;28;20017;-73
2022/12/26 00:27:12;;;;;;;63.55;29.33;;;9.60;99.90;;;;;;5044434;28;20032;-73
2022/12/26 00:29:38;;;;;;;60.25;28.55;;;9.50;99.90;;;;;;5051270;28;20031;-73
2022/12/26 00:32:03;;;;;;;63.63;29.85;;;9.50;99.90;;;;;;5052793;28;20052;-73
2022/12/26 00:34:29;;;;;;;60.38;28.25;;;9.50;99.90;;;;;;5043823;28;20033;-73
2022/12/26 00:36:54;;;;;;;58.70;28.95;;;9.50;99.90;;;;;;5042528;28;20457;-73
2022/12/26 00:39:20;;;;;;;64.03;29.67;;;9.50;99.90;;;;;;5046665;28;20024;-73
2022/12/26 00:41:45;;;;;;;57.92;27.88;;;9.50;99.90;;;;;;5038649;28;20140;-73
2022/12/26 00:44:11;;;;;;;65.60;28.05;;;9.50;99.90;;;;;;5049827;28;20025;-73
2022/12/26 00:46:37;;;;;;;58.90;28.40;;;9.50;99.90;;;;;;5043917;28;20057;-75
2022/12/26 00:49:03;;;;;;;61.15;29.88;;;9.50;99.90;;;;;;5050120;28;20021;-73
2022/12/26 00:51:29;;;;;;;60.65;28.10;;;9.50;99.90;;;;;;5027907;28;20022;-73
2022/12/26 00:53:55;;;;;;;56.45;28.10;;;9.50;99.90;;;;;;5053073;28;20021;-73
2022/12/26 00:56:20;;;;;;;60.08;27.33;;;9.50;99.90;;;;;;5050626;28;20064;-73
2022/12/26 00:58:46;;;;;;;56.28;26.38;;;9.40;99.90;;;;;;5048359;28;20023;-73
2022/12/26 01:01:18;;;;;;;56.53;26.48;;;9.40;99.90;;;;;;5050566;28;20086;-73
2022/12/26 01:03:44;;;;;;;54.38;25.52;;;9.40;99.90;;;;;;5052916;28;20024;-73
2022/12/26 01:06:10;;;;;;;50.03;24.92;;;9.40;99.90;;;;;;5054237;28;20437;-73
2022/12/26 01:08:36;;;;;;;54.97;25.60;;;9.40;99.90;;;;;;5038025;28;20025;-73
2022/12/26 01:11:10;;;;;;;46.85;23.83;;;9.40;99.90;;;;;;5049139;28;20550;-73
2022/12/26 01:13:36;;;;;;;46.22;22.92;;;9.40;99.90;;;;;;5043852;28;20063;-73
2022/12/26 01:16:03;;;;;;;50.95;24.23;;;9.40;99.90;;;;;;5051772;28;20053;-73
2022/12/26 01:18:29;;;;;;;47.50;21.80;;;9.40;99.90;;;;;;5032428;28;20025;-72
2022/12/26 01:21:07;;;;;;;46.50;21.95;;;9.40;99.90;;;;;;5048157;28;20082;-73
2022/12/26 01:23:33;;;;;;;46.13;21.88;;;9.40;99.90;;;;;;5041339;28;20612;-72
2022/12/26 01:25:58;;;;;;;43.33;20.92;;;9.50;99.90;;;;;;5033351;28;20037;-73
2022/12/26 01:28:24;;;;;;;45.22;21.50;;;9.50;99.90;;;;;;5041559;28;20529;-73
2022/12/26 01:30:50;;;;;;;41.60;20.27;;;9.50;99.90;;;;;;5052203;28;20056;-73
2022/12/26 01:33:15;;;;;;;39.67;20.98;;;9.50;99.90;;;;;;5053344;28;20047;-73
2022/12/26 01:35:49;;;;;;;45.22;20.10;;;9.50;99.90;;;;;;5051904;28;20096;-72
2022/12/26 01:38:14;;;;;;;37.67;19.27;;;9.50;99.90;;;;;;5045837;28;20366;-73
2022/12/26 01:40:42;;;;;;;43.65;21.92;;;9.50;99.90;;;;;;5046669;28;20025;-73
2022/12/26 01:43:11;;;;;;;40.85;20.98;;;9.50;99.90;;;;;;5042475;28;20021;-73
2022/12/26 01:45:36;;;;;;;38.78;20.80;;;9.50;99.90;;;;;;5044017;28;20095;-73
2022/12/26 01:48:32;;;;;;;42.67;20.95;;;9.50;99.90;;;;;;5047678;28;20021;-73
2022/12/26 01:51:04;;;;;;;40.80;21.25;;;9.50;99.90;;;;;;5052828;28;20037;-73
2022/12/26 01:53:40;;;;;;;39.17;20.67;;;9.50;99.90;;;;;;5045459;28;20096;-73
2022/12/26 01:56:36;;;;;;;44.40;21.23;;;9.60;99.90;;;;;;5052393;28;20024;-72
2022/12/26 01:59:05;;;;;;;;;;;9.60;99.90;;;;;;5053773;28;20104;-73
2022/12/26 02:01:35;;;;;;;34.92;19.45;;;9.60;99.90;;;;;;5053296;28;19993;-72
2022/12/26 02:06:49;;;;;;;37.92;20.50;;;9.60;99.90;;;;;;5051986;28;20055;-71
2022/12/26 02:09:15;;;;;;;38.80;21.10;;;9.60;99.90;;;;;;5041890;28;20148;-71
2022/12/26 02:11:48;;;;;;;43.28;22.63;;;9.60;99.90;;;;;;5044254;28;20029;-71
2022/12/26 02:14:14;;;;;;;37.80;23.20;;;9.60;99.90;;;;;;5050485;28;20020;-71
2022/12/26 02:16:40;;;;;;;42.13;23.35;;;9.60;99.90;;;;;;5052694;28;20025;-72
2022/12/26 02:19:16;;;;;;;45.22;24.27;;;9.60;99.90;;;;;;5036107;28;20029;-72
2022/12/26 02:22:14;;;;;;;44.90;23.95;;;9.60;99.90;;;;;;5046373;28;20025;-72
2022/12/26 02:24:53;;;;;;;45.38;24.10;;;9.60;99.90;;;;;;5051707;28;20108;-72
2022/12/26 02:27:34;;;;;;;45.80;24.75;;;9.60;99.90;;;;;;5052604;28;20444;-71
2022/12/26 02:30:21;;;;;;;45.92;24.60;;;9.60;99.90;;;;;;5052597;28;20063;-72
2022/12/26 02:33:21;;;;;;;44.53;24.30;;;9.60;99.90;;;;;;5048617;28;20029;-72
2022/12/26 02:35:56;;;;;;;41.80;24.00;;;9.60;99.90;;;;;;5010273;28;20117;-72
2022/12/26 02:38:57;;;;;;;42.13;23.07;;;9.60;99.90;;;;;;5014411;28;20032;-72
2022/12/26 02:41:51;;;;;;;42.70;24.25;;;9.60;99.90;;;;;;5006057;28;20376;-71
2022/12/26 02:47:24;;;;;;;42.05;23.95;;;9.50;99.90;;;;;;5004533;28;20109;-71
2022/12/26 03:13:15;;;;;;;35.70;21.17;;;9.20;99.90;;;;;;5033822;28;20509;-71
2022/12/26 03:18:37;;;;;;;34.42;20.60;;;9.20;99.90;;;;;;5049864;28;20094;-71
2022/12/26 03:21:05;;;;;;;37.63;20.90;;;9.20;99.90;;;;;;5051054;28;20027;-71
2022/12/26 03:23:31;;;;;;;33.08;19.77;;;9.20;99.90;;;;;;5050976;28;20031;-71
2022/12/26 03:28:47;;;;;;;32.92;19.90;;;9.20;99.90;;;;;;5050491;28;20040;-72
2022/12/26 03:31:14;;;;;;;30.17;18.00;;;9.10;99.90;;;;;;5031631;28;20107;-71
2022/12/26 03:36:27;;;;;;;31.58;17.05;;;9.10;99.90;;;;;;5042060;28;20070;-71
2022/12/26 03:39:17;;;;;;;30.98;16.23;;;9.10;99.90;;;;;;5049459;28;20096;-71
2022/12/26 04:19:55;;;;;;;12.82;8.45;;;9.10;99.90;;;;;;5050037;28;20062;-71
2022/12/26 04:45:18;;;;;;;;;;;9.10;99.90;;;;;;5057108;28;20049;-70
2022/12/26 04:50:10;;;;;;;13.18;6.05;;;9.00;99.90;;;;;;5053839;28;19913;-71
2022/12/26 04:50:29;;;;;;;9.23;5.35;;;9.10;99.90;;;;;;5049963;28;20037;-71
2022/12/26 04:52:58;;;;;;;9.75;5.13;;;9.10;99.90;;;;;;5049157;28;20031;-71
2022/12/26 04:55:29;;;;;;;9.70;4.90;;;9.10;99.90;;;;;;5050020;28;20456;-71
2022/12/26 04:57:55;;;;;;;12.00;5.25;;;9.10;99.90;;;;;;5031489;28;20047;-71
2022/12/26 05:00:23;;;;;;;11.25;4.63;;;9.10;99.90;;;;;;5030365;28;20100;-71
2022/12/26 05:11:15;;;;;;;9.85;4.30;;;9.10;99.90;;;;;;5049967;28;20608;-71
2022/12/26 05:13:41;;;;;;;13.52;4.43;;;9.10;99.90;;;;;;5049900;28;20036;-71
2022/12/26 05:29:53;;;;;;;9.00;3.97;;;9.30;99.90;;;;;;5049649;28;20067;-71
2022/12/26 05:35:03;;;;;;;8.13;4.00;;;9.40;99.90;;;;;;5042970;28;20115;-70
2022/12/26 05:37:28;;;;;;;8.90;4.25;;;9.40;99.90;;;;;;5042344;28;20445;-71
2022/12/26 05:39:54;;;;;;;6.38;4.20;;;9.40;99.90;;;;;;5044161;28;20025;-71
2022/12/26 05:42:20;;;;;;;10.13;3.40;;;9.40;99.90;;;;;;5051237;28;20441;-71
2022/12/26 05:44:46;;;;;;;9.18;4.10;;;9.40;99.90;;;;;;5033467;28;20026;-70
2022/12/26 05:47:12;;;;;;;6.70;4.00;;;9.40;99.90;;;;;;5046445;28;20746;-71
2022/12/26 05:49:37;;;;;;;6.78;3.58;;;9.40;99.90;;;;;;5040459;28;20104;-70
2022/12/26 05:52:03;;;;;;;5.80;3.63;;;9.40;99.90;;;;;;5039361;28;20495;-70
2022/12/26 05:54:29;;;;;;;11.55;4.05;;;9.40;99.90;;;;;;5050361;28;20051;-71
2022/12/26 05:56:54;;;;;;;7.38;4.13;;;9.40;99.90;;;;;;5034760;28;20025;-71
2022/12/26 05:59:20;;;;;;;7.32;3.83;;;9.40;99.90;;;;;;5051378;28;20029;-71
2022/12/26 06:01:45;;;;;;;8.93;4.20;;;9.40;99.90;;;;;;5052701;28;20100;-71
2022/12/26 06:04:11;;;;;;;8.65;4.00;;;9.30;99.90;;;;;;5052566;28;20463;-71
2022/12/26 06:06:37;;;;;;;10.93;4.30;;;9.30;99.90;;;;;;5052007;28;20041;-71
2022/12/26 06:09:02;;;;;;;8.73;4.45;;;9.30;99.90;;;;;;5052165;28;20068;-70
2022/12/26 06:11:28;;;;;;;10.38;4.25;;;9.30;99.90;;;;;;5034586;28;20029;-71
2022/12/26 06:13:55;;;;;;;10.32;4.47;;;9.30;99.90;;;;;;5052678;28;20103;-71
2022/12/26 06:16:21;;;;;;;7.68;4.00;;;9.30;99.90;;;;;;5050759;28;20025;-71
2022/12/26 06:18:47;;;;;;;9.52;4.50;;;9.30;99.90;;;;;;5041997;28;20021;-71
2022/12/26 06:21:16;;;;;;;9.07;4.28;;;9.30;99.90;;;;;;5041331;28;20108;-71
2022/12/26 06:23:42;;;;;;;10.25;4.35;;;9.30;99.90;;;;;;5039690;28;20021;-71
2022/12/26 06:26:09;;;;;;;8.88;4.25;;;9.30;99.90;;;;;;5039076;28;20040;-72
2022/12/26 06:28:35;;;;;;;11.82;4.78;;;9.30;99.90;;;;;;5035315;28;20037;-71
2022/12/26 06:31:03;;;;;;;10.38;4.20;;;9.40;99.90;;;;;;5040211;28;20025;-71
2022/12/26 06:33:29;;;;;;;11.18;4.50;;;9.40;99.90;;;;;;5040840;28;20018;-71
2022/12/26 06:36:21;;;;;;;7.35;3.95;;;9.40;99.90;;;;;;5049345;28;20025;-71
2022/12/26 06:38:46;;;;;;;10.43;4.57;;;9.40;99.90;;;;;;5051797;28;20265;-71
2022/12/26 06:41:14;;;;;;;9.00;4.25;;;9.40;99.90;;;;;;5041040;28;20141;-71
2022/12/26 06:43:41;;;;;;;17.13;4.43;;;9.50;99.90;;;;;;5041657;28;20034;-71
2022/12/26 06:46:09;;;;;;;11.55;4.45;;;9.50;99.90;;;;;;5046225;28;20038;-71
2022/12/26 06:48:41;;;;;;;10.63;4.70;;;9.40;99.90;;;;;;5021860;28;20499;-71
2022/12/26 06:51:11;;;;;;;7.72;4.47;;;9.50;99.90;;;;;;5050411;28;20021;-71
2022/12/26 06:53:37;;;;;;;12.05;4.78;;;9.40;99.90;;;;;;5045948;28;20025;-71
2022/12/26 06:56:06;;;;;;;8.73;4.60;;;9.50;99.90;;;;;;5042626;28;20041;-71
2022/12/26 06:58:32;;;;;;;10.70;4.28;;;9.50;99.90;;;;;;5044587;28;20078;-71
2022/12/26 07:01:12;;;;;;;8.38;4.22;;;9.50;99.90;;;;;;5045413;28;20096;-71
2022/12/26 07:03:38;;;;;;;10.52;4.55;;;9.50;99.90;;;;;;5051220;28;20048;-71
2022/12/26 07:06:06;;;;;;;13.40;4.40;;;9.50;99.90;;;;;;5037379;28;20053;-72
2022/12/26 07:08:33;;;;;;;9.93;4.30;;;9.50;99.90;;;;;;5051709;28;20020;-71
2022/12/26 07:10:59;;;;;;;9.93;4.28;;;9.50;99.90;;;;;;5049746;28;20394;-71
2022/12/26 07:13:24;;;;;;;17.25;4.68;;;9.50;99.90;;;;;;5045285;28;20021;-71
2022/12/26 07:15:50;;;;;;;9.73;4.13;;;9.50;99.90;;;;;;5044157;28;20437;-71
2022/12/26 07:18:16;;;;;;;8.00;3.85;;;9.50;99.90;;;;;;5048871;28;20543;-72
2022/12/26 07:20:41;;;;;;;17.52;4.30;;;9.60;99.90;;;;;;5053696;28;20107;-72
2022/12/26 07:23:07;;;;;;;9.70;3.97;;;9.60;99.90;;;;;;5050192;28;20023;-72
2022/12/26 07:25:32;;;;;;;10.10;4.07;;;9.60;99.90;;;;;;5050522;28;20037;-72
2022/12/26 07:27:59;;;;;;;8.40;3.30;;;9.60;99.90;;;;;;5050517;28;20103;-73
2022/12/26 07:30:25;;;;;;;14.52;3.92;;;9.60;99.90;;;;;;5038500;28;20016;-73
2022/12/26 07:32:50;;;;;;;9.98;3.67;;;9.60;99.90;;;;;;5062043;28;20078;-72
2022/12/26 07:35:16;;;;;;;14.27;3.58;;;9.60;99.90;;;;;;5050701;28;20484;-73
2022/12/26 07:37:41;;;;;;;10.38;3.45;;;9.60;99.90;;;;;;5050749;28;20021;-72
2022/12/26 07:40:08;;;;;;;9.13;3.53;;;9.60;99.90;;;;;;5040923;28;20120;-73
2022/12/26 07:42:33;;;;;;;10.13;3.70;;;9.60;99.90;;;;;;5035539;28;20028;-72
2022/12/26 07:44:59;;;;;;;8.85;3.92;;;9.60;99.90;;;;;;5033324;28;20383;-72
2022/12/26 07:47:25;;;;;;;9.55;3.65;;;9.60;99.90;;;;;;5034874;28;20048;-73
2022/12/26 07:49:50;;;;;;;12.32;3.92;;;9.60;99.90;;;;;;5049985;28;20067;-73
2022/12/26 07:52:16;;;;;;;15.88;4.80;;;9.60;99.90;;;;;;5050092;28;20021;-73
2022/12/26 07:54:42;;;;;;;13.25;4.22;;;9.60;99.90;;;;;;5043226;28;20020;-73
2022/12/26 07:57:07;;;;;;;12.50;4.32;;;9.60;99.90;;;;;;5071432;28;20104;-73
2022/12/26 07:59:33;;;;;;;7.55;3.67;;;9.60;99.90;;;;;;5069429;28;20020;-72
2022/12/26 08:02:01;;;;;;;12.35;4.47;;;9.60;99.90;;;;;;5055372;28;20021;-73
2022/12/26 08:04:27;;;;;;;8.93;4.60;;;9.60;99.90;;;;;;5051152;28;20059;-73
2022/12/26 08:06:52;;;;;;;12.60;4.28;;;9.60;99.90;;;;;;5061926;28;20021;-73
2022/12/26 08:09:18;;;;;;;15.68;4.65;;;9.60;99.90;;;;;;5054948;28;20032;-73
2022/12/26 08:11:44;;;;;;;13.20;4.38;;;9.60;99.90;;;;;;5055371;28;20020;-73
2022/12/26 08:14:11;;;;;;;11.63;4.03;;;9.50;99.90;;;;;;5060464;28;20696;-73
2022/12/26 08:16:36;;;;;;;13.32;3.63;;;9.50;99.90;;;;;;5061047;28;20029;-73
2022/12/26 08:19:05;;;;;;;8.60;2.67;;;9.50;99.90;;;;;;5043431;28;20048;-73
2022/12/26 08:21:30;;;;;;;7.15;2.55;;;9.50;99.90;;;;;;5029148;28;20178;-73
2022/12/26 08:23:56;;;;;;;8.05;2.22;;;9.40;99.90;;;;;;5041517;28;20104;-73
2022/12/26 08:26:22;;;;;;;8.70;2.33;;;9.40;99.90;;;;;;5046235;28;20482;-73
2022/12/26 08:28:49;;;;;;;12.80;2.30;;;9.40;99.90;;;;;;5043523;28;20029;-72
2022/12/26 08:31:17;;;;;;;8.10;2.20;;;9.30;99.90;;;;;;5047589;28;20024;-72
2022/12/26 08:33:43;;;;;;;6.13;1.40;;;9.30;99.90;;;;;;5051568;28;20024;-72
2022/12/26 08:36:11;;;;;;;6.60;1.75;;;9.20;99.90;;;;;;5054344;28;20508;-72
2022/12/26 08:38:38;;;;;;;10.02;2.00;;;9.20;99.90;;;;;;5044639;28;20074;-73
2022/12/26 08:41:04;;;;;;;9.05;1.83;;;9.20;99.90;;;;;;5050219;28;20104;-72
2022/12/26 08:43:30;;;;;;;16.27;2.35;;;9.20;99.90;;;;;;5048741;28;20053;-72
2022/12/26 08:46:04;;;;;;;12.60;1.95;;;9.20;99.90;;;;;;5055948;28;20057;-72
2022/12/26 08:48:30;;;;;;;20.88;3.40;;;9.10;99.90;;;;;;5060861;28;20021;-72
2022/12/26 08:51:01;;;;;;;23.33;4.25;;;9.10;99.90;;;;;;5051706;28;20024;-72
2022/12/26 08:53:29;;;;;;;23.70;4.25;;;9.10;99.90;;;;;;5037788;28;20040;-72
2022/12/26 08:55:55;;;;;;;17.10;2.70;;;9.10;99.90;;;;;;5045244;28;20047;-72
2022/12/26 08:58:21;;;;;;;16.13;2.30;;;9.10;99.90;;;;;;5053832;28;20032;-72
2022/12/26 09:00:47;;;;;;;17.45;2.83;;;9.10;99.90;;;;;;5056539;28;20080;-72
2022/12/26 09:03:14;;;;;;;30.77;3.63;;;9.10;99.90;;;;;;5046179;28;20033;-72
2022/12/26 09:05:39;;;;;;;21.38;3.42;;;9.10;99.90;;;;;;5042115;28;20053;-72
2022/12/26 09:08:05;;;;;;;15.98;2.80;;;9.10;99.90;;;;;;5049191;28;20474;-72
2022/12/26 09:10:31;;;;;;;18.42;2.95;;;9.00;99.90;;;;;;5049579;28;20022;-71
2022/12/26 09:12:57;;;;;;;19.05;3.08;;;8.90;99.90;;;;;;5048304;28;20056;-72
2022/12/26 09:15:23;;;;;;;17.83;2.97;;;8.90;99.90;;;;;;5048187;28;20503;-72
2022/12/26 09:17:48;;;;;;;18.20;2.58;;;8.70;99.90;;;;;;5047580;28;20663;-72
2022/12/26 09:20:14;;;;;;;18.77;2.90;;;8.60;99.90;;;;;;5052744;28;20024;-72
2022/12/26 09:22:49;;;;;;;14.18;2.20;;;8.50;99.90;;;;;;5052499;28;20017;-72
2022/12/26 09:25:15;;;;;;;23.73;2.53;;;8.40;99.90;;;;;;5050264;28;20078;-72
2022/12/26 09:27:41;;;;;;;13.65;2.00;;;8.40;99.90;;;;;;5035366;28;20033;-72
2022/12/26 09:30:07;;;;;;;11.25;2.25;;;8.40;99.90;;;;;;5052268;28;20025;-72
2022/12/26 09:32:34;;;;;;;13.27;2.03;;;8.30;99.90;;;;;;5033549;28;20017;-72
2022/12/26 09:35:00;;;;;;;13.32;2.25;;;8.20;99.90;;;;;;5033251;28;20021;-72
2022/12/26 09:37:25;;;;;;;15.50;2.45;;;8.20;99.90;;;;;;5047265;28;20018;-72
2022/12/26 09:39:51;;;;;;;18.05;2.35;;;8.10;99.90;;;;;;5042069;28;20027;-72
2022/12/26 09:42:47;;;;;;;16.92;2.03;;;8.00;99.90;;;;;;5051504;28;20021;-72
2022/12/26 09:45:36;;;;;;;13.65;2.35;;;8.00;99.90;;;;;;5052550;28;20070;-72
2022/12/26 09:48:30;;;;;;;11.38;2.00;;;7.90;99.90;;;;;;5039711;28;20039;-72
2022/12/26 09:50:56;;;;;;;14.18;2.25;;;7.90;99.90;;;;;;5052140;28;20531;-72
2022/12/26 09:53:33;;;;;;;13.55;1.80;;;7.80;99.90;;;;;;5047381;28;20087;-72
2022/12/26 09:56:05;;;;;;;16.27;2.53;;;7.80;99.90;;;;;;5054433;28;20033;-72
2022/12/26 09:59:05;;;;;;;12.25;1.92;;;7.80;99.90;;;;;;5058159;28;20020;-72
2022/12/26 10:01:35;;;;;;;12.98;2.03;;;7.80;99.90;;;;;;5052973;28;20393;-72
2022/12/26 10:04:05;;;;;;;13.73;2.55;;;7.70;99.90;;;;;;5058263;28;20287;-72
2022/12/26 10:06:40;;;;;;;11.93;2.10;;;7.70;99.90;;;;;;5047974;28;20021;-72
2022/12/26 10:09:18;;;;;;;12.32;1.70;;;7.70;99.90;;;;;;5057247;28;20028;-73
2022/12/26 10:12:01;;;;;;;11.18;2.22;;;7.70;99.90;;;;;;5052792;28;20033;-72
2022/12/26 10:14:49;;;;;;;14.48;2.22;;;7.70;99.90;;;;;;5050149;28;20531;-72
2022/12/26 10:17:41;;;;;;;13.20;2.55;;;7.70;99.90;;;;;;5051477;28;20134;-72
2022/12/26 10:20:27;;;;;;;17.90;2.30;;;7.70;99.90;;;;;;5055590;28;20120;-72
2022/12/26 10:23:09;;;;;;;11.98;1.85;;;7.80;99.90;;;;;;5063797;28;20088;-72
2022/12/26 10:26:05;;;;;;;10.98;2.03;;;7.70;99.90;;;;;;5048100;28;20017;-72
2022/12/26 10:28:40;;;;;;;11.80;2.45;;;7.70;99.90;;;;;;5058726;28;20047;-72
2022/12/26 10:31:13;;;;;;;10.30;1.98;;;7.70;99.90;;;;;;5052043;28;20416;-72
2022/12/26 10:33:45;;;;;;;9.48;1.77;;;7.70;99.90;;;;;;5055805;28;20056;-72
2022/12/26 10:36:43;;;;;;;11.75;1.90;;;7.70;99.90;;;;;;5049215;28;20047;-72
2022/12/26 10:39:41;;;;;;;9.13;1.90;;;7.70;99.90;;;;;;5027882;28;20486;-72
2022/12/26 10:42:25;;;;;;;10.20;1.90;;;7.70;99.90;;;;;;5052888;28;20038;-72
2022/12/26 10:44:51;;;;;;;9.32;1.73;;;7.70;99.90;;;;;;5036638;28;20030;-72
2022/12/26 10:47:38;;;;;;;12.30;1.60;;;7.70;99.90;;;;;;5051039;28;20045;-72
2022/12/26 10:50:04;;;;;;;12.25;2.03;;;7.70;99.90;;;;;;5052251;28;20040;-71
2022/12/26 10:52:34;;;;;;;7.70;1.92;;;7.60;99.90;;;;;;5048486;28;20612;-72
2022/12/26 10:55:00;;;;;;;11.88;1.88;;;7.60;99.90;;;;;;5050707;28;20040;-72
2022/12/26 10:57:34;;;;;;;8.85;1.70;;;7.60;99.90;;;;;;5043596;28;20092;-73
2022/12/26 11:00:01;;;;;;;8.45;1.80;;;7.60;99.90;;;;;;5044259;28;20490;-73
2022/12/26 11:02:31;;;;;;;13.15;1.90;;;7.70;99.90;;;;;;5043396;28;20435;-72
2022/12/26 11:05:10;;;;;;;8.90;2.25;;;7.80;99.90;;;;;;5050752;28;20048;-71
2022/12/26 11:07:47;;;;;;;16.40;2.10;;;7.90;99.90;;;;;;5044696;28;20458;-70
2022/12/26 11:10:26;;;;;;;14.90;1.90;;;8.00;99.90;;;;;;5049774;28;20179;-73
2022/12/26 11:12:55;;;;;;;6.60;1.45;;;8.00;99.90;;;;;;5059826;28;20107;-73
2022/12/26 11:15:39;;;;;;;14.60;1.90;;;8.00;99.90;;;;;;5040576;28;20020;-71
2022/12/26 11:18:16;;;;;;;7.30;1.60;;;8.00;99.90;;;;;;5053861;28;20068;-72
2022/12/26 11:20:42;;;;;;;13.05;1.60;;;8.00;99.90;;;;;;5058843;28;20031;-72
2022/12/26 11:23:21;;;;;;;8.38;1.65;;;8.00;99.90;;;;;;5058389;28;20449;-72
2022/12/26 11:25:54;;;;;;;12.07;1.65;;;7.90;99.90;;;;;;5069622;28;20075;-72
2022/12/26 11:28:40;;;;;;;9.85;1.50;;;7.90;99.90;;;;;;5053170;28;20032;-72
2022/12/26 11:31:16;;;;;;;5.10;1.05;;;7.90;99.90;;;;;;5065443;28;20128;-71
2022/12/26 11:33:44;;;;;;;10.55;1.27;;;7.80;99.90;;;;;;5061118;28;20024;-72
2022/12/26 11:36:24;;;;;;;3.10;0.88;;;7.80;99.90;;;;;;5037883;28;20033;-72
2022/12/26 11:39:00;;;;;;;6.00;1.90;;;7.90;99.90;;;;;;5053764;28;20051;-77
2022/12/26 11:41:32;;;;;;;7.82;1.55;;;7.90;99.90;;;;;;5065994;28;20088;-77
2022/12/26 11:44:26;;;;;;;5.97;1.00;;;7.90;99.90;;;;;;5063466;28;20104;-74
2022/12/26 11:47:12;;;;;;;8.35;1.25;;;8.00;99.90;;;;;;5052842;28;20044;-74
2022/12/26 11:49:44;;;;;;;3.63;1.05;;;8.00;99.90;;;;;;5054761;28;20029;-74
2022/12/26 11:52:41;;;;;;;6.25;1.20;;;7.90;99.90;;;;;;5049290;28;20025;-73
2022/12/26 11:55:27;;;;;;;8.80;1.38;;;7.80;99.90;;;;;;5050342;28;20025;-74
2022/12/26 11:58:04;;;;;;;5.07;1.10;;;7.70;99.90;;;;;;5056120;28;20029;-74
2022/12/26 12:00:33;;;;;;;7.38;1.10;;;7.70;99.90;;;;;;5058771;28;20033;-73
2022/12/26 12:03:00;;;;;;;4.57;1.30;;;7.60;99.90;;;;;;5059263;28;20471;-73
2022/12/26 12:05:32;;;;;;;2.95;1.08;;;7.50;99.90;;;;;;5053154;28;20064;-73
2022/12/26 12:08:19;;;;;;;3.10;1.10;;;7.50;99.90;;;;;;5051160;28;20064;-72
2022/12/26 12:10:47;;;;;;;3.08;0.90;;;7.40;99.90;;;;;;5033075;28;20379;-73
2022/12/26 12:13:46;;;;;;;6.30;1.10;;;7.40;99.90;;;;;;5058206;28;20017;-73
2022/12/26 12:16:32;;;;;;;8.23;1.30;;;7.30;99.90;;;;;;5044942;28;20049;-74
2022/12/26 12:19:17;;;;;;;6.03;1.35;;;7.30;99.90;;;;;;5051016;28;20055;-74
2022/12/26 12:21:44;;;;;;;6.85;1.10;;;7.30;99.90;;;;;;5055454;28;20033;-75
2022/12/26 12:24:37;;;;;;;7.07;1.17;;;7.30;99.90;;;;;;5049304;28;20554;-73
2022/12/26 12:27:15;;;;;;;5.38;1.15;;;7.30;99.90;;;;;;5026288;28;20116;-73
2022/12/26 12:29:59;;;;;;;5.72;1.35;;;7.20;99.90;;;;;;5057487;28;20432;-73
2022/12/26 12:32:41;;;;;;;8.20;1.63;;;7.30;99.90;;;;;;5041803;28;20359;-73
2022/12/26 12:35:32;;;;;;;6.15;1.40;;;7.40;99.90;;;;;;5056417;28;20176;-73
2022/12/26 12:38:20;;;;;;;7.90;1.50;;;7.40;99.90;;;;;;5032350;28;20029;-73
2022/12/26 12:41:04;;;;;;;5.70;1.63;;;7.40;99.90;;;;;;5043902;28;20033;-72
2022/12/26 12:44:08;;;;;;;8.70;1.10;;;7.40;99.90;;;;;;5057042;28;20027;-71
2022/12/26 12:47:00;;;;;;;6.75;1.00;;;7.40;99.90;;;;;;5002652;28;20050;-72
2022/12/26 12:49:35;;;;;;;8.57;2.10;;;7.40;99.90;;;;;;4999469;28;20408;-71
2022/12/26 12:52:09;;;;;;;;;;;7.40;99.90;;;;;;4989566;28;20038;-71
2022/12/26 12:54:47;;;;;;;8.00;1.25;;;7.50;99.90;;;;;;4986319;28;20004;-72
2022/12/26 12:57:28;;;;;;;6.97;0.95;;;7.50;99.90;;;;;;4990098;28;20078;-72
2022/12/26 12:59:59;;;;;;;10.18;1.63;;;7.50;99.90;;;;;;4993368;28;20453;-72
2022/12/26 13:02:28;;;;;;;10.82;1.35;;;7.50;99.90;;;;;;4989943;28;20018;-72
2022/12/26 13:05:18;;;;;;;7.72;1.20;;;7.60;99.90;;;;;;4988010;28;20049;-72
2022/12/26 13:07:50;;;;;;;11.63;1.58;;;7.60;99.90;;;;;;4988933;28;20212;-72
2022/12/26 13:10:28;;;;;;;8.35;1.25;;;7.60;99.90;;;;;;4973578;28;20034;-72
2022/12/26 13:12:56;;;;;;;8.90;1.42;;;7.60;99.90;;;;;;4993011;28;20023;-73
2022/12/26 13:15:33;;;;;;;6.05;1.30;;;7.60;99.90;;;;;;4998045;28;20034;-73
2022/12/26 13:18:14;;;;;;;9.82;1.38;;;7.60;99.90;;;;;;4992890;28;20065;-73
2022/12/26 13:21:08;;;;;;;10.35;1.17;;;7.70;99.90;;;;;;4994271;28;20085;-73
2022/12/26 13:26:34;;;;;;;7.30;1.05;;;7.60;99.90;;;;;;5044112;28;20360;-73
2022/12/26 13:29:23;;;;;;;12.50;1.43;;;7.60;99.90;;;;;;5043153;28;20025;-72
2022/12/26 13:31:49;;;;;;;9.85;1.30;;;7.60;99.90;;;;;;5040267;28;21267;-73
2022/12/26 13:34:17;;;;;;;7.72;1.30;;;7.50;99.90;;;;;;5050310;28;20025;-72
2022/12/26 13:36:43;;;;;;;6.70;1.45;;;7.50;99.90;;;;;;5044534;28;20022;-71
2022/12/26 13:39:11;;;;;;;12.35;1.65;;;7.60;99.90;;;;;;5046332;28;20044;-73
2022/12/26 13:44:35;;;;;;;8.77;1.27;;;7.60;99.90;;;;;;5062694;28;20028;-72
2022/12/26 13:47:01;;;;;;;3.03;1.08;;;7.50;99.90;;;;;;5055778;28;20029;-73
2022/12/26 13:49:38;;;;;;;8.07;1.10;;;7.50;99.90;;;;;;5058339;28;20027;-73
2022/12/26 13:52:10;;;;;;;5.07;1.10;;;7.50;99.90;;;;;;5061148;28;20024;-73
2022/12/26 13:54:45;;;;;;;5.32;1.20;;;7.40;99.90;;;;;;5054672;28;20580;-72
2022/12/26 13:57:36;;;;;;;8.90;1.35;;;7.40;99.90;;;;;;5044655;28;20390;-73
2022/12/26 14:00:06;;;;;;;10.00;1.30;;;7.40;99.90;;;;;;5051243;28;20498;-72
2022/12/26 14:02:50;;;;;;;11.23;1.50;;;7.40;99.90;;;;;;5049394;28;20344;-72
2022/12/26 14:05:31;;;;;;;5.93;1.50;;;7.40;99.90;;;;;;5048939;28;20045;-74
2022/12/26 14:08:12;;;;;;;9.68;1.20;;;7.40;99.90;;;;;;5058730;28;20040;-74
2022/12/26 14:10:55;;;;;;;13.00;1.55;;;7.40;99.90;;;;;;5055668;28;20029;-74
2022/12/26 14:13:26;;;;;;;9.23;1.42;;;7.40;99.90;;;;;;5031195;28;20363;-74
2022/12/26 14:16:23;;;;;;;8.43;1.35;;;7.40;99.90;;;;;;5064279;28;20028;-74
2022/12/26 14:18:59;;;;;;;4.88;1.08;;;7.40;99.90;;;;;;5006208;28;20092;-74
2022/12/26 14:21:34;;;;;;;10.68;1.60;;;7.30;99.90;;;;;;5059205;28;20043;-74
2022/12/26 14:24:11;;;;;;;9.48;1.48;;;7.30;99.90;;;;;;5062049;28;20055;-74
2022/12/26 14:26:40;;;;;;;10.25;1.63;;;7.30;99.90;;;;;;5051929;28;20312;-74
2022/12/26 14:29:31;;;;;;;10.98;1.70;;;7.30;99.90;;;;;;5051990;28;20332;-75
2022/12/26 14:32:27;;;;;;;10.55;1.45;;;7.40;99.90;;;;;;5051003;28;20029;-72
2022/12/26 14:35:22;;;;;;;11.73;1.65;;;7.30;99.90;;;;;;5042949;28;20445;-72
2022/12/26 14:38:15;;;;;;;17.17;2.13;;;7.30;99.90;;;;;;5050711;28;20045;-73
2022/12/26 14:40:58;;;;;;;11.48;1.85;;;7.30;99.90;;;;;;5051685;28;20048;-73
2022/12/26 14:43:39;;;;;;;14.50;2.45;;;7.30;99.90;;;;;;5052517;28;20029;-73
2022/12/26 14:46:30;;;;;;;10.63;1.85;;;7.30;99.90;;;;;;5051394;28;20025;-73
2022/12/26 14:49:16;;;;;;;16.30;2.50;;;7.20;99.90;;;;;;5052525;28;20017;-73
2022/12/26 14:51:42;;;;;;;8.25;1.85;;;7.20;99.90;;;;;;5051263;28;20025;-74
2022/12/26 14:54:33;;;;;;;13.80;2.38;;;7.20;99.90;;;;;;5050856;28;20017;-74
2022/12/26 14:56:59;;;;;;;16.65;2.22;;;7.10;99.90;;;;;;5052880;28;20426;-73
2022/12/26 14:59:31;;;;;;;12.85;1.83;;;7.10;99.90;;;;;;5035942;28;20017;-73
2022/12/26 15:02:31;;;;;;;11.32;2.05;;;7.10;99.90;;;;;;5042038;28;20103;-73
2022/12/26 15:05:24;;;;;;;22.45;3.00;;;7.10;99.90;;;;;;5029512;28;20087;-74
2022/12/26 15:08:27;;;;;;;10.25;2.20;;;7.10;99.90;;;;;;5044490;28;20255;-73
2022/12/26 15:11:23;;;;;;;9.57;2.08;;;7.10;99.90;;;;;;5051895;28;20025;-73
2022/12/26 15:14:10;;;;;;;11.25;1.75;;;7.00;99.90;;;;;;5049764;28;20101;-73
2022/12/26 15:17:02;;;;;;;12.98;2.50;;;7.00;99.90;;;;;;5043797;28;20032;-74
2022/12/26 15:20:03;;;;;;;16.67;2.70;;;7.00;99.90;;;;;;5056659;28;20458;-74
2022/12/26 15:22:40;;;;;;;7.93;2.15;;;7.00;99.90;;;;;;5039010;28;20040;-73
2022/12/26 15:25:37;;;;;;;17.05;3.00;;;6.90;99.90;;;;;;5044368;28;20032;-73
2022/12/26 15:28:09;;;;;;;11.07;2.78;;;6.90;99.90;;;;;;5045393;28;20033;-73